Time;durP1;ratioP1;P1;durP2;ratioP2;P2;SDS_P1;SDS_P2;PMS_P1;PMS_P2;Temp;Humidity;BMP_temperature;BMP_pressure;BME280_temperature;BME280_humidity;BME280_pressure;Samples;Min_cycle;Max_cycle;Signal;HPM_P1;HPM_P2
2024/01/10 00:00:26;;;;;;;32.05;19.83;;;;;;;;;;5088489;28;20032;-78
2024/01/10 00:02:52;;;;;;;32.33;22.13;;;;;;;;;;5076741;28;20093;-78
2024/01/10 00:05:18;;;;;;;34.38;22.05;;;;;;;;;;5067173;28;20040;-79
2024/01/10 00:07:44;;;;;;;31.98;21.67;;;;;;;;;;5088274;28;20044;-78
2024/01/10 00:10:10;;;;;;;34.47;22.25;;;;;;;;;;5066965;28;20040;-79
2024/01/10 00:12:37;;;;;;;36.40;22.70;;;;;;;;;;5088554;28;20043;-78
2024/01/10 00:15:06;;;;;;;33.20;20.90;;;;;;;;;;5068329;28;20047;-78
2024/01/10 00:17:32;;;;;;;33.78;23.27;;;;;;;;;;5066407;28;20036;-78
2024/01/10 00:19:59;;;;;;;35.15;22.70;;;;;;;;;;5085196;28;20513;-79
2024/01/10 00:22:25;;;;;;;36.33;23.50;;;;;;;;;;5069468;28;20039;-78
2024/01/10 00:24:51;;;;;;;39.88;23.17;;;;;;;;;;5065270;28;20074;-78
2024/01/10 00:27:17;;;;;;;33.85;23.40;;;;;;;;;;5067686;28;20418;-78
2024/01/10 00:29:43;;;;;;;33.83;22.02;;;;;;;;;;5069396;28;20040;-79
2024/01/10 00:32:09;;;;;;;33.70;22.55;;;;;;;;;;5084237;28;20538;-78
2024/01/10 00:34:35;;;;;;;33.95;22.85;;;;;;;;;;5070536;28;20476;-78
2024/01/10 00:37:01;;;;;;;35.63;21.90;;;;;;;;;;5088091;28;20753;-77
2024/01/10 00:39:27;;;;;;;34.00;22.65;;;;;;;;;;5070380;28;20673;-78
2024/01/10 00:41:53;;;;;;;32.30;21.88;;;;;;;;;;5066158;28;20484;-78
2024/01/10 00:44:19;;;;;;;37.67;23.58;;;;;;;;;;5066072;28;20051;-79
2024/01/10 00:46:45;;;;;;;33.42;21.85;;;;;;;;;;5051876;28;20044;-78
2024/01/10 00:49:11;;;;;;;37.95;23.38;;;;;;;;;;5072430;28;20421;-78
2024/01/10 00:51:38;;;;;;;37.92;25.75;;;;;;;;;;5080874;28;20033;-79
2024/01/10 00:54:04;;;;;;;34.45;22.75;;;;;;;;;;5070675;28;20037;-78
2024/01/10 00:56:30;;;;;;;34.95;22.33;;;;;;;;;;5071903;28;20036;-78
2024/01/10 00:58:57;;;;;;;34.65;22.20;;;;;;;;;;5082742;28;20123;-78
2024/01/10 01:01:24;;;;;;;36.78;22.75;;;;;;;;;;5068850;28;20399;-78
2024/01/10 01:03:50;;;;;;;34.67;23.70;;;;;;;;;;5063226;28;20145;-77
2024/01/10 01:06:16;;;;;;;38.03;23.55;;;;;;;;;;5071363;28;20123;-79
2024/01/10 01:08:42;;;;;;;34.45;23.02;;;;;;;;;;5065255;28;20058;-78
2024/01/10 01:11:09;;;;;;;35.63;21.80;;;;;;;;;;5068377;28;20046;-78
2024/01/10 01:13:35;;;;;;;36.35;21.80;;;;;;;;;;5064967;28;20064;-78
2024/01/10 01:16:02;;;;;;;35.00;21.75;;;;;;;;;;5050227;28;20039;-77
2024/01/10 01:18:28;;;;;;;32.47;21.92;;;;;;;;;;5061269;28;20036;-77
2024/01/10 01:20:54;;;;;;;33.75;21.42;;;;;;;;;;5049543;28;20063;-77
2024/01/10 01:23:20;;;;;;;35.72;23.02;;;;;;;;;;5060424;28;20079;-78
2024/01/10 01:25:46;;;;;;;33.30;21.48;;;;;;;;;;5082827;28;20506;-78
2024/01/10 01:28:12;;;;;;;33.95;21.08;;;;;;;;;;5083014;28;21739;-78
2024/01/10 01:30:39;;;;;;;32.17;20.02;;;;;;;;;;5064826;28;20470;-79
2024/01/10 01:33:05;;;;;;;31.10;20.92;;;;;;;;;;5086743;28;20043;-77
2024/01/10 01:35:31;;;;;;;33.25;21.45;;;;;;;;;;5065342;28;20048;-78
2024/01/10 01:37:57;;;;;;;31.90;19.98;;;;;;;;;;5068935;28;20120;-78
2024/01/10 01:40:23;;;;;;;35.10;21.00;;;;;;;;;;5067448;28;21969;-77
2024/01/10 01:42:49;;;;;;;30.48;20.08;;;;;;;;;;5078125;28;20561;-78
2024/01/10 01:45:15;;;;;;;32.67;21.50;;;;;;;;;;5051917;28;20048;-78
2024/01/10 01:47:41;;;;;;;31.60;20.38;;;;;;;;;;5064050;28;20079;-78
2024/01/10 01:50:08;;;;;;;33.38;20.77;;;;;;;;;;5046952;28;20040;-77
2024/01/10 01:52:34;;;;;;;34.05;20.38;;;;;;;;;;5084312;28;20495;-78
2024/01/10 01:55:01;;;;;;;32.90;20.50;;;;;;;;;;5081537;28;20044;-77
2024/01/10 01:57:27;;;;;;;29.08;20.55;;;;;;;;;;5065187;28;20097;-78
2024/01/10 01:59:53;;;;;;;32.67;21.25;;;;;;;;;;5056572;28;20087;-77
2024/01/10 02:02:21;;;;;;;34.17;20.42;;;;;;;;;;5065523;28;20063;-78
2024/01/10 02:04:47;;;;;;;33.67;19.75;;;;;;;;;;5065170;28;20078;-78
2024/01/10 02:07:13;;;;;;;32.75;20.98;;;;;;;;;;5075928;28;20046;-77
2024/01/10 02:09:39;;;;;;;31.23;20.95;;;;;;;;;;5061073;28;20056;-77
2024/01/10 02:12:05;;;;;;;36.35;20.17;;;;;;;;;;5077093;28;20476;-78
2024/01/10 02:14:32;;;;;;;37.20;22.65;;;;;;;;;;5063536;28;20089;-77
2024/01/10 02:16:58;;;;;;;29.02;19.65;;;;;;;;;;5065378;28;20028;-77
2024/01/10 02:19:26;;;;;;;33.47;21.65;;;;;;;;;;5067216;28;21068;-77
2024/01/10 02:21:52;;;;;;;32.53;22.05;;;;;;;;;;5080155;28;20045;-73
2024/01/10 02:24:18;;;;;;;35.65;22.73;;;;;;;;;;5073504;28;20078;-73
2024/01/10 02:26:44;;;;;;;30.38;19.80;;;;;;;;;;5062345;28;20130;-74
2024/01/10 02:29:10;;;;;;;30.67;19.67;;;;;;;;;;5081591;28;20047;-75
2024/01/10 02:31:37;;;;;;;36.08;21.35;;;;;;;;;;5077296;28;20037;-74
2024/01/10 02:34:03;;;;;;;31.27;20.00;;;;;;;;;;5064203;28;20076;-72
2024/01/10 02:36:29;;;;;;;38.05;23.00;;;;;;;;;;5066308;28;20036;-72
2024/01/10 02:38:55;;;;;;;35.35;21.67;;;;;;;;;;5079169;28;20067;-73
2024/01/10 02:41:21;;;;;;;36.05;23.95;;;;;;;;;;5049739;28;20056;-73
2024/01/10 02:43:47;;;;;;;35.50;21.92;;;;;;;;;;5061340;28;20084;-74
2024/01/10 02:46:13;;;;;;;36.72;22.60;;;;;;;;;;5064539;28;20090;-74
2024/01/10 02:48:39;;;;;;;35.47;21.88;;;;;;;;;;5078557;28;20058;-75
2024/01/10 02:51:05;;;;;;;36.25;23.88;;;;;;;;;;5058918;28;20123;-74
2024/01/10 02:53:32;;;;;;;34.25;22.70;;;;;;;;;;5076489;28;20411;-72
2024/01/10 02:55:58;;;;;;;36.85;22.80;;;;;;;;;;5056374;28;20028;-74
2024/01/10 02:58:25;;;;;;;37.65;24.85;;;;;;;;;;5067201;28;20129;-74
2024/01/10 03:00:51;;;;;;;36.90;24.13;;;;;;;;;;5079852;28;20067;-74
2024/01/10 03:03:17;;;;;;;36.63;23.38;;;;;;;;;;5084452;28;20048;-76
2024/01/10 03:05:43;;;;;;;37.40;24.95;;;;;;;;;;5084847;28;20122;-75
2024/01/10 03:08:09;;;;;;;37.30;23.70;;;;;;;;;;5064808;28;20052;-73
2024/01/10 03:10:35;;;;;;;37.53;23.98;;;;;;;;;;5080314;28;20457;-74
2024/01/10 03:13:02;;;;;;;39.83;25.50;;;;;;;;;;5058203;28;20029;-74
2024/01/10 03:15:28;;;;;;;40.35;24.15;;;;;;;;;;5075037;28;20514;-73
2024/01/10 03:17:54;;;;;;;38.80;24.95;;;;;;;;;;5079621;28;20483;-73
2024/01/10 03:20:20;;;;;;;37.35;24.08;;;;;;;;;;5083643;28;20082;-74
2024/01/10 03:22:46;;;;;;;37.90;25.05;;;;;;;;;;5060003;28;20093;-72
2024/01/10 03:25:13;;;;;;;38.75;24.27;;;;;;;;;;5059557;28;20048;-72
2024/01/10 03:27:39;;;;;;;37.35;24.42;;;;;;;;;;5068236;28;20097;-72
2024/01/10 03:30:05;;;;;;;39.78;23.90;;;;;;;;;;5067321;28;20036;-77
2024/01/10 03:32:31;;;;;;;38.00;23.75;;;;;;;;;;5067739;28;20406;-75
2024/01/10 03:34:58;;;;;;;32.60;21.67;;;;;;;;;;5079604;28;20039;-77
2024/01/10 03:37:24;;;;;;;35.60;23.60;;;;;;;;;;5081356;28;20119;-77
2024/01/10 03:39:50;;;;;;;38.33;22.83;;;;;;;;;;5080352;28;20036;-78
2024/01/10 03:42:16;;;;;;;38.13;23.42;;;;;;;;;;5077030;28;20123;-78
2024/01/10 03:44:42;;;;;;;36.60;23.10;;;;;;;;;;5074491;28;20040;-77
2024/01/10 03:47:08;;;;;;;38.97;24.30;;;;;;;;;;5064591;28;20040;-78
2024/01/10 03:49:34;;;;;;;37.33;24.15;;;;;;;;;;5070701;28;20063;-78
2024/01/10 03:52:00;;;;;;;43.13;26.35;;;;;;;;;;5063685;28;20479;-79
2024/01/10 03:54:26;;;;;;;39.85;25.48;;;;;;;;;;5069315;28;20829;-79
2024/01/10 03:56:52;;;;;;;40.15;24.50;;;;;;;;;;5059887;28;20407;-78
2024/01/10 03:59:18;;;;;;;37.33;24.58;;;;;;;;;;5063251;28;20040;-78
2024/01/10 04:01:44;;;;;;;36.90;24.88;;;;;;;;;;5081565;28;20063;-77
2024/01/10 04:04:10;;;;;;;37.22;24.42;;;;;;;;;;5058606;28;20093;-78
2024/01/10 04:06:36;;;;;;;36.85;24.15;;;;;;;;;;5065091;28;20152;-78
2024/01/10 04:09:02;;;;;;;40.08;24.35;;;;;;;;;;5063639;28;20528;-78
2024/01/10 04:11:29;;;;;;;35.70;22.60;;;;;;;;;;5056571;28;20032;-77
2024/01/10 04:13:55;;;;;;;40.58;23.77;;;;;;;;;;5061918;28;20411;-78
2024/01/10 04:16:21;;;;;;;36.22;22.95;;;;;;;;;;5059364;28;20047;-78
2024/01/10 04:18:47;;;;;;;33.75;21.67;;;;;;;;;;5069170;28;20039;-78
2024/01/10 04:21:13;;;;;;;33.67;20.88;;;;;;;;;;5081450;28;20044;-78
2024/01/10 04:23:39;;;;;;;31.65;21.05;;;;;;;;;;5062499;28;20036;-77
2024/01/10 04:26:05;;;;;;;33.92;22.52;;;;;;;;;;5080541;28;20032;-77
2024/01/10 04:28:31;;;;;;;40.03;23.00;;;;;;;;;;5055132;28;20036;-77
2024/01/10 04:30:57;;;;;;;41.90;23.38;;;;;;;;;;5071015;28;20045;-76
2024/01/10 04:33:23;;;;;;;38.63;24.15;;;;;;;;;;5060564;28;20048;-76
2024/01/10 04:35:49;;;;;;;39.78;24.20;;;;;;;;;;5072513;28;20662;-77
2024/01/10 04:38:16;;;;;;;36.58;23.60;;;;;;;;;;5065418;28;20561;-77
2024/01/10 04:40:42;;;;;;;40.13;25.10;;;;;;;;;;5086488;28;20472;-77
2024/01/10 04:43:08;;;;;;;35.85;24.30;;;;;;;;;;5083106;28;20048;-75
2024/01/10 04:45:34;;;;;;;38.97;25.15;;;;;;;;;;5084022;28;20070;-77
2024/01/10 04:48:00;;;;;;;37.33;24.33;;;;;;;;;;5085095;28;20453;-77
2024/01/10 04:50:26;;;;;;;39.25;26.50;;;;;;;;;;5084801;28;20036;-78
2024/01/10 04:52:52;;;;;;;39.05;24.90;;;;;;;;;;5084135;28;20126;-77
2024/01/10 04:55:18;;;;;;;41.90;26.08;;;;;;;;;;5083855;28;20123;-78
2024/01/10 04:57:44;;;;;;;38.22;25.45;;;;;;;;;;5054254;28;20471;-77
2024/01/10 05:00:11;;;;;;;39.75;25.50;;;;;;;;;;5064704;28;20443;-78
2024/01/10 05:02:37;;;;;;;38.38;24.73;;;;;;;;;;5081413;28;20066;-78
2024/01/10 05:05:04;;;;;;;38.17;25.73;;;;;;;;;;5081181;28;20052;-76
2024/01/10 05:07:33;;;;;;;40.35;26.63;;;;;;;;;;5085315;28;20043;-78
2024/01/10 05:09:59;;;;;;;35.53;23.73;;;;;;;;;;5062027;28;20044;-78
2024/01/10 05:12:25;;;;;;;37.15;23.92;;;;;;;;;;5064906;28;20117;-76
2024/01/10 05:14:54;;;;;;;39.47;25.67;;;;;;;;;;5082480;28;20032;-85
2024/01/10 05:17:20;;;;;;;36.90;24.80;;;;;;;;;;5066252;28;20036;-85
2024/01/10 05:19:46;;;;;;;36.70;23.50;;;;;;;;;;5082435;28;20131;-85
2024/01/10 05:22:13;;;;;;;38.20;25.13;;;;;;;;;;5064112;28;20045;-84
2024/01/10 05:24:39;;;;;;;38.85;24.98;;;;;;;;;;5073300;28;20445;-84
2024/01/10 05:27:05;;;;;;;40.97;24.92;;;;;;;;;;5069730;28;20094;-85
2024/01/10 05:29:31;;;;;;;39.88;26.83;;;;;;;;;;5058636;28;20032;-84
2024/01/10 05:31:57;;;;;;;39.03;24.55;;;;;;;;;;5081924;28;20205;-81
2024/01/10 05:34:23;;;;;;;39.45;24.92;;;;;;;;;;5081447;28;20094;-85
2024/01/10 05:36:49;;;;;;;40.78;26.15;;;;;;;;;;5068325;28;20029;-85
2024/01/10 05:39:15;;;;;;;41.63;26.02;;;;;;;;;;5066310;28;20089;-85
2024/01/10 05:41:43;;;;;;;43.45;26.67;;;;;;;;;;5072272;28;20170;-83
2024/01/10 05:44:09;;;;;;;43.53;27.42;;;;;;;;;;5074177;28;20071;-83
2024/01/10 05:46:35;;;;;;;41.22;27.10;;;;;;;;;;5057485;28;20040;-84
2024/01/10 05:49:04;;;;;;;41.53;28.50;;;;;;;;;;5071822;28;20032;-84
2024/01/10 05:51:30;;;;;;;40.83;25.88;;;;;;;;;;5067716;28;20040;-82
2024/01/10 05:53:56;;;;;;;41.70;26.63;;;;;;;;;;5069769;28;20043;-82
2024/01/10 05:56:23;;;;;;;40.47;27.58;;;;;;;;;;5071905;28;20037;-82
2024/01/10 05:58:50;;;;;;;42.80;27.45;;;;;;;;;;5065412;28;20056;-83
2024/01/10 06:01:17;;;;;;;46.17;27.98;;;;;;;;;;5060851;28;20055;-83
2024/01/10 06:03:43;;;;;;;45.05;26.85;;;;;;;;;;5077016;28;20075;-82
2024/01/10 06:06:09;;;;;;;40.25;26.05;;;;;;;;;;5062177;28;20040;-82
2024/01/10 06:08:35;;;;;;;41.33;27.17;;;;;;;;;;5086771;28;20456;-82
2024/01/10 06:11:08;;;;;;;43.00;27.35;;;;;;;;;;5069132;28;20703;-81
2024/01/10 06:13:34;;;;;;;46.88;27.92;;;;;;;;;;5074604;28;20409;-83
2024/01/10 06:16:02;;;;;;;42.20;26.58;;;;;;;;;;5081514;28;20040;-83
2024/01/10 06:18:28;;;;;;;41.17;25.88;;;;;;;;;;5058114;28;20149;-83
2024/01/10 06:20:54;;;;;;;43.63;27.17;;;;;;;;;;5075692;28;20036;-82
2024/01/10 06:23:20;;;;;;;42.42;24.98;;;;;;;;;;5066408;28;20098;-82
2024/01/10 06:25:46;;;;;;;37.88;24.30;;;;;;;;;;5063865;28;20508;-83
2024/01/10 06:28:12;;;;;;;38.65;24.20;;;;;;;;;;5066387;28;20044;-81
2024/01/10 06:30:38;;;;;;;40.28;24.55;;;;;;;;;;5065035;28;20036;-82
2024/01/10 06:33:06;;;;;;;41.72;25.38;;;;;;;;;;5080274;28;20066;-83
2024/01/10 06:35:34;;;;;;;44.20;25.25;;;;;;;;;;5077110;28;20123;-82
2024/01/10 06:38:03;;;;;;;41.72;26.23;;;;;;;;;;5052699;28;20132;-83
2024/01/10 06:40:29;;;;;;;41.22;24.35;;;;;;;;;;5084753;28;20040;-83
2024/01/10 06:42:56;;;;;;;45.97;25.20;;;;;;;;;;5069540;28;20044;-82
2024/01/10 06:45:22;;;;;;;42.42;24.95;;;;;;;;;;5057265;28;20044;-83
2024/01/10 06:47:48;;;;;;;40.00;23.70;;;;;;;;;;5072225;28;20372;-80
2024/01/10 06:50:15;;;;;;;43.83;23.02;;;;;;;;;;5082467;28;20474;-81
2024/01/10 06:52:41;;;;;;;42.08;23.85;;;;;;;;;;5065224;28;20032;-82
2024/01/10 06:55:08;;;;;;;42.45;22.98;;;;;;;;;;5064792;28;20042;-82
2024/01/10 06:57:34;;;;;;;41.03;22.83;;;;;;;;;;5063543;28;20068;-82
2024/01/10 07:00:03;;;;;;;44.80;23.50;;;;;;;;;;5081774;28;20066;-84
2024/01/10 07:02:29;;;;;;;42.03;22.00;;;;;;;;;;5054413;28;20075;-83
2024/01/10 07:04:55;;;;;;;46.60;23.50;;;;;;;;;;5072900;28;20514;-86
2024/01/10 07:07:21;;;;;;;44.95;21.13;;;;;;;;;;5066916;28;20037;-84
2024/01/10 07:09:47;;;;;;;42.13;22.02;;;;;;;;;;5064896;28;20384;-85
2024/01/10 07:12:13;;;;;;;44.88;22.38;;;;;;;;;;5067921;28;20039;-86
2024/01/10 07:14:40;;;;;;;44.00;21.40;;;;;;;;;;5073303;28;20028;-86
2024/01/10 07:17:06;;;;;;;46.53;22.85;;;;;;;;;;5072533;28;20036;-87
2024/01/10 07:19:32;;;;;;;47.13;21.42;;;;;;;;;;5069807;28;20070;-85
2024/01/10 07:21:58;;;;;;;47.25;21.98;;;;;;;;;;5069923;28;20092;-84
2024/01/10 07:24:24;;;;;;;45.60;21.00;;;;;;;;;;5052870;28;20543;-83
2024/01/10 07:26:51;;;;;;;44.97;21.23;;;;;;;;;;5066958;28;20782;-85
2024/01/10 07:29:17;;;;;;;43.08;20.20;;;;;;;;;;5060707;28;20048;-86
2024/01/10 07:31:43;;;;;;;42.28;19.55;;;;;;;;;;5071976;28;20070;-85
2024/01/10 07:34:12;;;;;;;44.28;19.98;;;;;;;;;;5083596;28;20131;-84
2024/01/10 07:36:42;;;;;;;42.45;19.42;;;;;;;;;;5069261;28;20032;-85
2024/01/10 07:39:08;;;;;;;40.47;18.83;;;;;;;;;;5081417;28;20036;-86
2024/01/10 07:41:34;;;;;;;39.55;19.08;;;;;;;;;;5079365;28;20036;-86
2024/01/10 07:44:01;;;;;;;37.47;17.05;;;;;;;;;;5076787;28;20040;-83
2024/01/10 07:46:30;;;;;;;37.42;17.70;;;;;;;;;;5079347;28;20040;-85
2024/01/10 07:48:56;;;;;;;36.67;16.60;;;;;;;;;;5077254;28;20375;-84
2024/01/10 07:51:22;;;;;;;36.83;16.58;;;;;;;;;;5081806;28;20044;-85
2024/01/10 07:53:48;;;;;;;32.22;15.88;;;;;;;;;;5067532;28;20040;-85
2024/01/10 07:56:14;;;;;;;34.95;15.85;;;;;;;;;;5067635;28;20036;-83
2024/01/10 07:58:40;;;;;;;36.40;16.40;;;;;;;;;;5078437;28;20135;-85
2024/01/10 08:01:06;;;;;;;35.53;15.68;;;;;;;;;;5071022;28;20032;-85
2024/01/10 08:03:33;;;;;;;33.58;15.68;;;;;;;;;;5084693;28;20060;-84
2024/01/10 08:05:59;;;;;;;28.73;14.63;;;;;;;;;;5062707;28;20048;-85
2024/01/10 08:08:25;;;;;;;33.90;15.60;;;;;;;;;;5086664;28;20040;-84
2024/01/10 08:10:51;;;;;;;33.42;16.27;;;;;;;;;;5052197;28;20036;-85
2024/01/10 08:13:18;;;;;;;35.47;16.40;;;;;;;;;;5085560;28;20495;-83
2024/01/10 08:15:44;;;;;;;34.00;15.60;;;;;;;;;;5073941;28;20036;-85
2024/01/10 08:18:10;;;;;;;34.35;15.57;;;;;;;;;;5074855;28;20036;-83
2024/01/10 08:20:36;;;;;;;35.67;16.00;;;;;;;;;;5073644;28;20222;-84
2024/01/10 08:23:02;;;;;;;31.33;14.85;;;;;;;;;;5083592;28;20051;-84
2024/01/10 08:25:29;;;;;;;29.17;14.63;;;;;;;;;;5068326;28;20036;-85
2024/01/10 08:27:57;;;;;;;34.55;15.05;;;;;;;;;;5092879;28;20170;-87
2024/01/10 08:30:23;;;;;;;31.02;14.43;;;;;;;;;;5074762;28;20467;-85
2024/01/10 08:32:50;;;;;;;30.25;14.32;;;;;;;;;;5090024;28;20042;-86
2024/01/10 08:35:16;;;;;;;32.67;15.63;;;;;;;;;;5090304;28;20033;-86
2024/01/10 08:37:42;;;;;;;31.58;14.82;;;;;;;;;;5089932;28;20036;-84
2024/01/10 08:40:14;;;;;;;30.63;15.27;;;;;;;;;;5071283;28;20044;-85
2024/01/10 08:42:40;;;;;;;31.67;14.20;;;;;;;;;;5070693;28;20036;-86
2024/01/10 08:45:09;;;;;;;32.63;15.45;;;;;;;;;;5063158;28;20487;-85
2024/01/10 08:47:35;;;;;;;35.65;17.10;;;;;;;;;;5088173;28;20040;-85
2024/01/10 08:50:02;;;;;;;34.00;15.32;;;;;;;;;;5088294;28;20123;-86
2024/01/10 08:52:28;;;;;;;32.58;15.50;;;;;;;;;;5088865;28;20047;-85
2024/01/10 08:54:54;;;;;;;30.85;15.25;;;;;;;;;;5072208;28;20084;-85
2024/01/10 08:57:20;;;;;;;33.10;15.55;;;;;;;;;;5090130;28;20044;-82
2024/01/10 08:59:46;;;;;;;27.75;14.38;;;;;;;;;;5070978;28;20048;-87
2024/01/10 09:02:12;;;;;;;32.08;14.05;;;;;;;;;;5083102;28;20060;-85
2024/01/10 09:04:39;;;;;;;28.60;14.70;;;;;;;;;;5066532;28;20032;-86
2024/01/10 09:07:05;;;;;;;30.17;15.35;;;;;;;;;;5058295;28;20074;-86
2024/01/10 09:09:31;;;;;;;28.92;14.13;;;;;;;;;;5070602;28;20043;-85
2024/01/10 09:11:57;;;;;;;30.58;14.98;;;;;;;;;;5094812;28;20414;-86
2024/01/10 09:14:23;;;;;;;27.70;13.60;;;;;;;;;;5057673;28;20059;-83
2024/01/10 09:16:49;;;;;;;32.53;14.90;;;;;;;;;;5054607;28;20032;-84
2024/01/10 09:19:15;;;;;;;29.73;14.23;;;;;;;;;;5055295;28;20038;-86
2024/01/10 09:21:41;;;;;;;27.30;14.05;;;;;;;;;;5057822;28;20035;-85
2024/01/10 09:24:10;;;;;;;25.60;13.40;;;;;;;;;;5077093;28;20047;-85
2024/01/10 09:26:37;;;;;;;28.45;14.10;;;;;;;;;;5067057;28;20039;-87
2024/01/10 09:29:03;;;;;;;27.20;14.05;;;;;;;;;;5073171;28;20039;-86
2024/01/10 09:31:29;;;;;;;30.50;15.88;;;;;;;;;;5072984;28;20495;-86
2024/01/10 09:33:55;;;;;;;25.23;12.82;;;;;;;;;;5073159;28;20129;-86
2024/01/10 09:36:21;;;;;;;26.23;13.70;;;;;;;;;;5063836;28;20036;-87
2024/01/10 09:38:47;;;;;;;30.08;15.20;;;;;;;;;;5065106;28;20040;-87
2024/01/10 09:41:13;;;;;;;27.65;14.15;;;;;;;;;;5088382;28;20036;-87
2024/01/10 09:43:39;;;;;;;29.05;14.20;;;;;;;;;;5076488;28;20119;-86
2024/01/10 09:46:07;;;;;;;30.55;14.68;;;;;;;;;;5084523;28;20085;-84
2024/01/10 09:48:33;;;;;;;25.13;13.10;;;;;;;;;;5079901;28;20053;-85
2024/01/10 09:50:59;;;;;;;29.10;14.23;;;;;;;;;;5088525;28;20040;-85
2024/01/10 09:53:29;;;;;;;26.33;14.30;;;;;;;;;;5083906;28;20551;-85
2024/01/10 09:55:56;;;;;;;26.25;13.38;;;;;;;;;;5079265;28;20160;-86
2024/01/10 09:58:27;;;;;;;22.50;12.02;;;;;;;;;;5086068;28;20076;-86
2024/01/10 10:00:53;;;;;;;26.27;14.02;;;;;;;;;;5086093;28;20043;-86
2024/01/10 10:03:20;;;;;;;23.75;13.10;;;;;;;;;;5070761;28;20091;-86
2024/01/10 10:05:46;;;;;;;23.73;12.82;;;;;;;;;;5081723;28;20048;-86
2024/01/10 10:08:15;;;;;;;24.08;12.80;;;;;;;;;;5084885;28;20052;-87
2024/01/10 10:10:44;;;;;;;24.35;13.95;;;;;;;;;;5080414;28;20051;-85
2024/01/10 10:13:11;;;;;;;28.30;14.02;;;;;;;;;;5071517;28;20044;-83
2024/01/10 10:15:37;;;;;;;25.55;12.55;;;;;;;;;;5047178;28;20119;-86
2024/01/10 10:18:03;;;;;;;21.80;11.65;;;;;;;;;;5087998;28;20446;-84
2024/01/10 10:20:35;;;;;;;26.55;13.20;;;;;;;;;;5083659;28;20036;-86
2024/01/10 10:23:10;;;;;;;21.95;11.85;;;;;;;;;;5083599;28;20483;-86
2024/01/10 10:25:37;;;;;;;25.10;12.43;;;;;;;;;;5062984;28;20467;-86
2024/01/10 10:28:05;;;;;;;25.13;13.25;;;;;;;;;;5080185;28;20047;-85
2024/01/10 10:30:31;;;;;;;23.38;12.13;;;;;;;;;;5046596;28;20036;-82
2024/01/10 10:32:57;;;;;;;23.92;13.00;;;;;;;;;;5063277;28;20063;-81
2024/01/10 10:35:24;;;;;;;24.77;12.60;;;;;;;;;;5051335;28;20032;-80
2024/01/10 10:37:51;;;;;;;24.35;12.57;;;;;;;;;;5070155;28;20173;-82
2024/01/10 10:40:18;;;;;;;23.67;12.15;;;;;;;;;;5066189;28;20454;-82
2024/01/10 10:42:48;;;;;;;24.52;11.85;;;;;;;;;;5079781;28;20482;-82
2024/01/10 10:45:18;;;;;;;20.33;11.23;;;;;;;;;;5083339;28;20055;-82
2024/01/10 10:47:49;;;;;;;21.02;12.02;;;;;;;;;;5082658;28;20044;-82
2024/01/10 10:50:24;;;;;;;20.13;11.35;;;;;;;;;;5081581;28;20066;-82
2024/01/10 10:52:51;;;;;;;20.98;11.25;;;;;;;;;;5053742;28;20040;-82
2024/01/10 10:55:19;;;;;;;19.30;10.80;;;;;;;;;;5085799;28;20099;-83
2024/01/10 10:57:46;;;;;;;21.02;11.57;;;;;;;;;;5082549;28;20483;-83
2024/01/10 11:00:16;;;;;;;18.73;10.73;;;;;;;;;;5080772;28;20601;-81
2024/01/10 11:02:43;;;;;;;20.13;10.88;;;;;;;;;;5086446;28;20469;-83
2024/01/10 11:05:10;;;;;;;21.27;11.57;;;;;;;;;;5087133;28;20495;-82
2024/01/10 11:07:37;;;;;;;19.10;10.90;;;;;;;;;;5066015;28;20565;-82
2024/01/10 11:10:04;;;;;;;21.27;11.65;;;;;;;;;;5066771;28;20112;-82
2024/01/10 11:12:40;;;;;;;18.85;11.07;;;;;;;;;;5067986;28;20085;-82
2024/01/10 11:15:15;;;;;;;17.13;10.32;;;;;;;;;;5082821;28;20097;-81
2024/01/10 11:17:50;;;;;;;20.23;11.98;;;;;;;;;;5072337;28;20117;-82
2024/01/10 11:20:27;;;;;;;17.58;10.43;;;;;;;;;;5066255;28;20042;-80
2024/01/10 11:23:18;;;;;;;19.67;10.55;;;;;;;;;;5073785;28;20145;-83
2024/01/10 11:25:44;;;;;;;16.98;10.23;;;;;;;;;;5084342;28;20035;-81
2024/01/10 11:28:13;;;;;;;19.25;11.13;;;;;;;;;;5060308;28;20051;-81
2024/01/10 11:30:49;;;;;;;18.33;10.45;;;;;;;;;;5082320;28;20032;-80
2024/01/10 11:33:19;;;;;;;18.05;10.13;;;;;;;;;;5065662;28;20044;-82
2024/01/10 11:36:05;;;;;;;18.20;10.45;;;;;;;;;;5078399;28;20059;-81
2024/01/10 11:38:31;;;;;;;19.55;10.68;;;;;;;;;;5066371;28;20063;-80
2024/01/10 11:41:01;;;;;;;19.08;10.93;;;;;;;;;;5084161;28;20043;-81
2024/01/10 11:43:27;;;;;;;18.95;11.15;;;;;;;;;;5083719;28;20129;-85
2024/01/10 11:45:56;;;;;;;19.48;11.55;;;;;;;;;;5054338;28;20039;-84
2024/01/10 11:48:31;;;;;;;16.70;10.35;;;;;;;;;;5069107;28;20568;-85
2024/01/10 11:51:00;;;;;;;17.02;10.45;;;;;;;;;;5080344;28;20081;-85
2024/01/10 11:53:42;;;;;;;16.48;10.68;;;;;;;;;;5054928;28;20036;-84
2024/01/10 11:56:16;;;;;;;16.50;10.10;;;;;;;;;;5072289;28;20085;-85
2024/01/10 11:59:05;;;;;;;16.55;10.23;;;3.20;1.00;;;;;;5087498;28;20506;-85
2024/01/10 12:01:31;;;;;;;20.52;11.32;;;;;;;;;;5074202;28;20041;-86
2024/01/10 12:03:58;;;;;;;17.23;10.65;;;;;;;;;;5070260;28;20109;-84
2024/01/10 12:06:25;;;;;;;19.65;11.48;;;;;;;;;;5067961;28;20043;-85
2024/01/10 12:08:51;;;;;;;16.23;10.45;;;;;;;;;;5068686;28;20376;-86
2024/01/10 12:11:17;;;;;;;17.55;10.13;;;;;;;;;;5069530;28;20040;-84
2024/01/10 12:13:44;;;;;;;16.90;10.50;;;;;;;;;;5067974;28;20036;-85
2024/01/10 12:16:13;;;;;;;18.65;11.80;;;;;;;;;;5056600;28;20036;-85
2024/01/10 12:18:39;;;;;;;20.67;11.82;;;;;;;;;;5066368;28;20032;-83
2024/01/10 12:21:06;;;;;;;18.80;11.05;;;;;;;;;;5052326;28;20048;-83
2024/01/10 12:23:32;;;;;;;18.33;11.00;;;;;;;;;;5082751;28;20062;-86
2024/01/10 12:25:58;;;;;;;19.42;11.80;;;;;;;;;;5086988;28;20071;-84
2024/01/10 12:28:25;;;;;;;20.98;12.73;;;;;;;;;;5060857;28;20035;-85
2024/01/10 12:30:51;;;;;;;23.05;12.90;;;;;;;;;;5050041;28;20036;-86
2024/01/10 12:33:17;;;;;;;20.80;11.85;;;;;;;;;;5055254;28;20028;-85
2024/01/10 12:35:43;;;;;;;24.17;12.95;;;;;;;;;;5054089;28;20066;-85
2024/01/10 12:38:12;;;;;;;25.10;13.45;;;;;;;;;;5068027;28;20036;-86
2024/01/10 12:40:38;;;;;;;22.98;12.07;;;;;;;;;;5058671;28;20048;-85
2024/01/10 12:43:05;;;;;;;19.42;11.40;;;;;;;;;;5064256;28;20040;-85
2024/01/10 12:45:32;;;;;;;18.80;11.43;;;;;;;;;;5082042;28;20047;-86
2024/01/10 12:47:58;;;;;;;20.65;12.05;;;;;;;;;;5089793;28;20043;-86
2024/01/10 12:50:25;;;;;;;21.38;12.38;;;;;;;;;;5079047;28;20513;-86
2024/01/10 12:52:51;;;;;;;17.23;11.07;;;;;;;;;;5067774;28;20032;-87
2024/01/10 12:55:18;;;;;;;19.55;11.55;;;;;;;;;;5082984;28;20032;-86
2024/01/10 12:57:44;;;;;;;20.30;11.57;;;;;;;;;;5083712;28;20048;-86
2024/01/10 13:00:12;;;;;;;18.02;10.88;;;;;;;;;;5084891;28;20513;-86
2024/01/10 13:02:40;;;;;;;17.77;11.27;;;;;;;;;;5069234;28;20071;-86
2024/01/10 13:05:09;;;;;;;16.10;9.88;;;;;;;;;;5056633;28;20404;-86
2024/01/10 13:07:38;;;;;;;15.95;10.10;;;;;;;;;;5075898;28;20511;-86
2024/01/10 13:10:05;;;;;;;15.77;9.75;;;;;;;;;;5088133;28;20041;-85
2024/01/10 13:12:31;;;;;;;15.75;10.23;;;;;;;;;;5067239;28;20071;-85
2024/01/10 13:14:57;;;;;;;16.98;10.38;;;;;;;;;;5072348;28;20119;-84
2024/01/10 13:17:23;;;;;;;14.82;9.63;;;;;;;;;;5082031;28;20048;-86
2024/01/10 13:19:49;;;;;;;18.42;10.43;;;;;;;;;;5074776;28;20507;-84
2024/01/10 13:22:21;;;;;;;18.80;10.98;;;;;;;;;;5078537;28;20032;-85
2024/01/10 13:24:47;;;;;;;17.83;10.45;;;;;;;;;;5070300;28;20044;-85
2024/01/10 13:27:13;;;;;;;20.17;10.15;;;;;;;;;;5092737;28;20056;-85
2024/01/10 13:29:39;;;;;;;17.80;9.75;;;;;;;;;;5069668;28;20033;-83
2024/01/10 13:32:08;;;;;;;21.10;12.30;;;;;;;;;;5055642;28;20051;-85
2024/01/10 13:34:34;;;;;;;19.05;10.95;;;;;;;;;;5087967;28;20111;-83
2024/01/10 13:37:02;;;;;;;19.30;10.93;;;;;;;;;;5072596;28;20062;-83
2024/01/10 13:39:28;;;;;;;21.15;11.82;;;;;;;;;;5063728;28;20763;-84
2024/01/10 13:41:54;;;;;;;20.95;11.48;;;;;;;;;;5070794;28;20131;-84
2024/01/10 13:44:20;;;;;;;20.00;11.70;;;;;;;;;;5064497;28;20037;-84
2024/01/10 13:46:49;;;;;;;23.33;12.48;;;;;;;;;;5072818;28;20398;-84
2024/01/10 13:49:15;;;;;;;18.83;10.48;;;;;;;;;;5085218;28;20046;-85
2024/01/10 13:51:42;;;;;;;18.27;10.25;;;;;;;;;;5087168;28;20051;-85
2024/01/10 13:54:08;;;;;;;19.92;11.05;;;;;;;;;;5085874;28;20110;-83
2024/01/10 13:56:35;;;;;;;19.50;10.82;;;;;;;;;;5083990;28;20365;-82
2024/01/10 13:59:01;;;;;;;19.17;10.57;;;;;;;;;;5071455;28;20099;-85
2024/01/10 14:01:27;;;;;;;17.05;10.10;;;;;;;;;;5069395;28;20398;-82
2024/01/10 14:03:54;;;;;;;21.08;11.68;;;;;;;;;;5052084;28;20070;-82
2024/01/10 14:06:20;;;;;;;19.20;10.88;;;;;;;;;;5083387;28;20040;-82
2024/01/10 14:08:48;;;;;;;17.85;10.35;;;;;;;;;;5068020;28;20036;-83
2024/01/10 14:11:14;;;;;;;17.90;10.32;;;;;;;;;;5085040;28;20047;-82
2024/01/10 14:13:41;;;;;;;17.73;10.25;;;;;;;;;;5064404;28;20028;-82